createdAt,value
2022-11-09T00:00:39.164Z,14.77
2022-11-09T00:03:06.005Z,14.47
2022-11-09T00:05:33.000Z,14.20
2022-11-09T00:07:59.811Z,15.73
2022-11-09T00:10:26.829Z,15.97
2022-11-09T00:12:53.580Z,15.50
2022-11-09T00:15:20.782Z,12.63
2022-11-09T00:17:47.621Z,14.60
2022-11-09T00:20:14.434Z,13.00
2022-11-09T00:22:41.223Z,14.03
2022-11-09T00:25:08.370Z,15.37
2022-11-09T00:27:35.135Z,15.27
2022-11-09T00:30:02.015Z,14.90
2022-11-09T00:32:28.844Z,15.00
2022-11-09T00:34:55.697Z,9.50
2022-11-09T00:37:22.570Z,15.20
2022-11-09T00:39:50.880Z,11.73
2022-11-09T00:42:17.696Z,13.63
2022-11-09T00:44:45.014Z,14.93
2022-11-09T00:47:11.780Z,14.87
2022-11-09T00:49:39.196Z,15.83
2022-11-09T00:52:05.969Z,14.53
2022-11-09T00:54:32.828Z,14.80
2022-11-09T00:57:00.668Z,8.27
2022-11-09T00:59:27.861Z,15.60
2022-11-09T01:01:54.616Z,14.83
2022-11-09T01:04:21.448Z,15.80
2022-11-09T01:06:48.335Z,15.83
2022-11-09T01:09:15.270Z,15.70
2022-11-09T01:11:42.176Z,15.67
2022-11-09T01:14:09.896Z,14.90
2022-11-09T01:16:37.372Z,15.20
2022-11-09T01:19:04.400Z,15.63
2022-11-09T01:21:31.239Z,14.30
2022-11-09T01:24:00.065Z,13.70
2022-11-09T01:26:28.039Z,10.90
2022-11-09T01:28:54.933Z,14.50
2022-11-09T01:31:22.263Z,14.93
2022-11-09T01:33:49.224Z,15.30
2022-11-09T01:36:17.857Z,8.97
2022-11-09T01:38:44.935Z,14.33
2022-11-09T01:41:13.745Z,16.53
2022-11-09T01:43:40.595Z,14.47
2022-11-09T01:46:19.492Z,9.83
2022-11-09T01:48:48.806Z,16.30
2022-11-09T01:51:28.008Z,10.03
2022-11-09T01:54:03.992Z,14.97
2022-11-09T01:56:31.841Z,15.83
2022-11-09T01:59:01.193Z,9.20
2022-11-09T02:01:29.969Z,16.37
2022-11-09T02:04:03.382Z,15.13
2022-11-09T02:06:30.573Z,8.67
2022-11-09T02:09:03.324Z,16.17
2022-11-09T02:11:30.551Z,8.77
2022-11-09T02:14:00.094Z,12.63
2022-11-09T02:16:28.256Z,14.73
2022-11-09T02:18:57.327Z,16.57
2022-11-09T02:21:26.591Z,15.10
2022-11-09T02:23:54.772Z,14.63
2022-11-09T02:26:26.782Z,13.03
2022-11-09T02:28:55.548Z,16.47
2022-11-09T02:31:24.878Z,14.87
2022-11-09T02:33:51.680Z,12.23
2022-11-09T02:36:18.625Z,12.73
2022-11-09T02:38:46.163Z,13.27
2022-11-09T02:41:14.423Z,15.43
2022-11-09T02:43:41.304Z,13.57
2022-11-09T02:46:08.319Z,13.77
2022-11-09T02:48:35.141Z,11.20
2022-11-09T02:51:02.048Z,15.67
2022-11-09T02:53:29.187Z,15.27
2022-11-09T02:55:56.025Z,12.67
2022-11-09T02:58:22.817Z,15.03
2022-11-09T03:00:50.572Z,16.97
2022-11-09T03:03:17.614Z,14.93
2022-11-09T03:05:44.554Z,14.80
2022-11-09T03:08:13.193Z,12.23
2022-11-09T03:10:40.173Z,15.13
2022-11-09T03:13:07.203Z,15.70
2022-11-09T03:15:35.646Z,11.30
2022-11-09T03:18:02.582Z,14.57
2022-11-09T03:20:29.388Z,8.93
2022-11-09T03:22:59.579Z,12.83
2022-11-09T03:25:28.251Z,16.10
2022-11-09T03:27:59.720Z,15.90
2022-11-09T03:30:27.314Z,15.27
2022-11-09T03:33:01.741Z,14.83
2022-11-09T03:35:28.691Z,14.37
2022-11-09T03:37:56.247Z,11.87
2022-11-09T03:40:24.413Z,14.60
2022-11-09T03:42:51.834Z,16.80
2022-11-09T03:45:18.718Z,16.23
2022-11-09T03:47:46.254Z,16.53
2022-11-09T03:50:13.993Z,16.13
2022-11-09T03:52:41.119Z,17.00
2022-11-09T03:55:08.300Z,16.60
2022-11-09T03:57:35.141Z,17.70
2022-11-09T04:00:01.984Z,15.27
2022-11-09T04:02:38.364Z,19.67
2022-11-09T04:05:05.620Z,18.30
2022-11-09T04:07:32.601Z,16.00
2022-11-09T04:09:59.414Z,7.00
2022-11-09T04:12:26.268Z,15.60
2022-11-09T04:14:53.282Z,17.33
2022-11-09T04:17:20.092Z,15.47
2022-11-09T04:19:46.973Z,11.83
2022-11-09T04:22:13.823Z,13.53
2022-11-09T04:24:40.684Z,14.40
2022-11-09T04:27:07.510Z,17.90
2022-11-09T04:29:34.370Z,16.27
2022-11-09T04:32:01.158Z,15.37
2022-11-09T04:34:28.103Z,15.00
2022-11-09T04:36:54.989Z,16.23
2022-11-09T04:39:21.902Z,18.93
2022-11-09T04:41:48.737Z,16.40
2022-11-09T04:44:15.635Z,15.93
2022-11-09T04:46:43.141Z,14.40
2022-11-09T04:49:10.111Z,19.50
2022-11-09T04:51:36.884Z,16.10
2022-11-09T04:54:03.744Z,17.87
2022-11-09T04:56:30.578Z,15.63
2022-11-09T04:58:57.434Z,16.90
2022-11-09T05:01:24.386Z,13.37
2022-11-09T05:03:51.385Z,15.63
2022-11-09T05:06:33.805Z,16.90
2022-11-09T05:09:01.918Z,13.23
2022-11-09T05:11:29.000Z,15.37
2022-11-09T05:13:55.808Z,15.00
2022-11-09T05:16:23.654Z,7.47
2022-11-09T05:18:50.836Z,13.73
2022-11-09T05:21:17.948Z,16.03
2022-11-09T05:23:59.677Z,16.10
2022-11-09T05:26:28.058Z,17.80
2022-11-09T05:28:55.279Z,14.03
2022-11-09T05:31:22.136Z,16.17
2022-11-09T05:33:50.468Z,17.70
2022-11-09T05:36:17.860Z,18.07
2022-11-09T05:38:44.960Z,15.83
2022-11-09T05:41:12.149Z,15.03
2022-11-09T05:43:39.409Z,16.97
2022-11-09T05:46:06.888Z,15.30
2022-11-09T05:48:33.875Z,17.50
2022-11-09T05:51:02.238Z,17.53
2022-11-09T05:53:29.348Z,17.90
2022-11-09T05:55:56.504Z,10.87
2022-11-09T05:58:23.414Z,14.23
2022-11-09T06:00:50.209Z,17.67
2022-11-09T06:03:17.175Z,16.10
2022-11-09T06:05:44.095Z,17.20
2022-11-09T06:08:14.873Z,17.73
2022-11-09T06:10:42.905Z,13.27
2022-11-09T06:13:09.991Z,14.97
2022-11-09T06:15:36.977Z,15.43
2022-11-09T06:18:03.969Z,10.33
2022-11-09T06:20:30.803Z,17.23
2022-11-09T06:23:02.757Z,16.73
2022-11-09T06:25:32.010Z,15.63
2022-11-09T06:27:59.241Z,15.57
2022-11-09T06:30:26.083Z,15.67
2022-11-09T06:32:57.933Z,13.40
2022-11-09T06:35:24.753Z,16.03
2022-11-09T06:37:58.554Z,7.47
2022-11-09T06:40:25.459Z,14.40
2022-11-09T06:42:52.518Z,7.07
2022-11-09T06:45:19.368Z,11.57
2022-11-09T06:47:46.246Z,14.00
2022-11-09T06:50:13.123Z,15.53
2022-11-09T06:52:39.971Z,15.17
2022-11-09T06:55:08.380Z,15.60
2022-11-09T06:57:35.327Z,14.97
2022-11-09T07:00:02.411Z,13.20
2022-11-09T07:02:30.223Z,12.60
2022-11-09T07:04:57.144Z,12.47
2022-11-09T07:07:27.991Z,13.30
2022-11-09T07:09:56.025Z,15.00
2022-11-09T07:12:23.355Z,15.23
2022-11-09T07:14:50.277Z,13.07
2022-11-09T07:17:17.233Z,6.90
2022-11-09T07:19:44.086Z,14.70
2022-11-09T07:22:10.875Z,17.37
2022-11-09T07:24:37.758Z,16.97
2022-11-09T07:27:04.628Z,17.10
2022-11-09T07:29:31.411Z,17.93
2022-11-09T07:31:58.306Z,14.43
2022-11-09T07:34:25.171Z,16.17
2022-11-09T07:36:55.051Z,17.63
2022-11-09T07:39:21.895Z,15.23
2022-11-09T07:41:49.176Z,14.90
2022-11-09T07:44:18.531Z,17.83
2022-11-09T07:46:47.756Z,17.50
2022-11-09T07:49:15.591Z,7.20
2022-11-09T07:51:42.794Z,9.00
2022-11-09T07:54:10.534Z,10.57
2022-11-09T07:56:37.605Z,15.03
2022-11-09T07:59:04.456Z,10.07
2022-11-09T08:01:31.325Z,14.97
2022-11-09T08:03:58.213Z,17.77
2022-11-09T08:06:28.535Z,17.30
2022-11-09T08:08:55.558Z,17.70
2022-11-09T08:11:22.512Z,16.40
2022-11-09T08:13:49.700Z,17.40
2022-11-09T08:16:16.507Z,14.37
2022-11-09T08:18:43.361Z,18.97
2022-11-09T08:21:10.340Z,10.53
2022-11-09T08:23:37.310Z,17.30
2022-11-09T08:26:05.615Z,18.00
2022-11-09T08:28:32.972Z,15.87
2022-11-09T08:31:00.841Z,16.37
2022-11-09T08:33:28.892Z,7.77
2022-11-09T08:35:56.348Z,9.23
2022-11-09T08:38:23.664Z,12.87
2022-11-09T08:40:50.837Z,14.00
2022-11-09T08:43:17.713Z,16.37
2022-11-09T08:45:44.968Z,16.77
2022-11-09T08:48:12.044Z,12.70
2022-11-09T08:50:38.892Z,11.20
2022-11-09T08:53:06.195Z,16.90
2022-11-09T08:55:33.090Z,15.57
2022-11-09T08:58:00.786Z,12.67
2022-11-09T09:00:28.035Z,17.00
2022-11-09T09:02:55.393Z,7.20
2022-11-09T09:05:22.456Z,13.63
2022-11-09T09:07:49.243Z,15.47
2022-11-09T09:10:16.240Z,15.97
2022-11-09T09:12:43.008Z,14.03
2022-11-09T09:15:09.886Z,16.70
2022-11-09T09:17:36.877Z,11.90
2022-11-09T09:20:04.300Z,8.93
2022-11-09T09:22:32.545Z,9.87
2022-11-09T09:25:00.003Z,4.67
2022-11-09T09:27:27.215Z,12.40
2022-11-09T09:29:54.101Z,16.10
2022-11-09T09:32:21.032Z,13.10
2022-11-09T09:34:47.815Z,9.03
2022-11-09T09:37:14.630Z,15.67
2022-11-09T09:39:41.612Z,15.03
2022-11-09T09:42:12.165Z,15.80
2022-11-09T09:44:41.171Z,5.70
2022-11-09T09:47:15.929Z,12.87
2022-11-09T09:49:46.004Z,14.80
2022-11-09T09:52:13.013Z,8.17
2022-11-09T09:54:42.254Z,15.33
2022-11-09T09:57:15.036Z,14.50
2022-11-09T09:59:43.184Z,13.93
2022-11-09T10:02:26.871Z,12.70
2022-11-09T10:04:55.648Z,13.33
2022-11-09T10:07:39.509Z,14.50
2022-11-09T10:10:29.884Z,14.93
2022-11-09T10:13:14.961Z,13.27
2022-11-09T10:15:49.456Z,11.63
2022-11-09T10:18:29.287Z,15.10
2022-11-09T10:21:02.149Z,15.07
2022-11-09T10:23:29.110Z,13.13
2022-11-09T10:26:04.865Z,12.00
2022-11-09T10:28:54.651Z,12.43
2022-11-09T10:31:23.351Z,12.17
2022-11-09T10:33:53.077Z,12.47
2022-11-09T10:36:24.229Z,14.47
2022-11-09T10:38:51.811Z,14.70
2022-11-09T10:41:40.635Z,9.60
2022-11-09T10:44:26.160Z,13.23
2022-11-09T10:47:16.865Z,14.63
2022-11-09T10:50:17.708Z,13.17
2022-11-09T10:53:23.520Z,9.97
2022-11-09T10:56:11.979Z,10.03
2022-11-09T10:58:57.230Z,13.27
2022-11-09T11:01:42.413Z,15.87
2022-11-09T11:04:28.251Z,12.70
2022-11-09T11:07:19.595Z,14.87
2022-11-09T11:10:24.735Z,14.10
2022-11-09T11:13:10.387Z,12.67
2022-11-09T11:15:56.148Z,15.47
2022-11-09T11:18:45.565Z,13.50
2022-11-09T11:21:32.692Z,8.80
2022-11-09T11:24:19.650Z,11.17
2022-11-09T11:27:10.350Z,8.67
2022-11-09T11:29:59.959Z,12.67
2022-11-09T11:32:50.201Z,13.20
2022-11-09T11:35:43.413Z,9.23
2022-11-09T11:38:32.220Z,10.73
2022-11-09T11:41:20.910Z,8.00
2022-11-09T11:44:15.466Z,11.77
2022-11-09T11:47:15.948Z,13.20
2022-11-09T11:50:16.654Z,14.70
2022-11-09T11:53:14.431Z,12.03
2022-11-09T11:56:06.121Z,14.47
2022-11-09T11:58:57.405Z,14.00
2022-11-09T12:01:58.140Z,12.23
2022-11-09T12:04:43.596Z,12.93
2022-11-09T12:07:31.849Z,12.20
2022-11-09T12:10:17.157Z,12.13
2022-11-09T12:13:20.995Z,10.97
2022-11-09T12:16:09.547Z,13.13
2022-11-09T12:19:13.503Z,14.73
2022-11-09T12:22:09.110Z,12.03
2022-11-09T12:25:23.531Z,11.37
2022-11-09T12:28:15.040Z,16.30
2022-11-09T12:31:09.416Z,13.10
2022-11-09T12:34:00.094Z,14.93
2022-11-09T12:36:45.733Z,14.37
2022-11-09T12:39:31.262Z,15.83
2022-11-09T12:42:20.091Z,19.70
2022-11-09T12:45:13.437Z,17.10
2022-11-09T12:48:00.753Z,22.67
2022-11-09T12:50:46.172Z,20.00
2022-11-09T12:53:35.884Z,17.93
2022-11-09T12:56:26.984Z,17.90
2022-11-09T12:59:27.459Z,21.20
2022-11-09T13:02:33.063Z,19.07
2022-11-09T13:05:30.064Z,21.67
2022-11-09T13:08:17.820Z,20.93
2022-11-09T13:11:10.901Z,19.77
2022-11-09T13:14:14.805Z,20.00
2022-11-09T13:17:01.352Z,22.37
2022-11-09T13:19:46.822Z,19.00
2022-11-09T13:22:32.267Z,19.57
2022-11-09T13:25:34.410Z,19.67
2022-11-09T13:28:28.727Z,19.13
2022-11-09T13:31:13.905Z,18.27
2022-11-09T13:34:19.113Z,17.77
2022-11-09T13:37:22.940Z,19.50
2022-11-09T13:40:27.285Z,16.67
2022-11-09T13:43:12.793Z,18.93
2022-11-09T13:45:58.305Z,19.13
2022-11-09T13:48:43.661Z,18.23
2022-11-09T13:51:35.464Z,19.23
2022-11-09T13:54:44.261Z,17.77
2022-11-09T13:57:31.608Z,16.53
2022-11-09T14:00:19.816Z,15.53
2022-11-09T14:03:16.684Z,15.03
2022-11-09T14:06:03.098Z,16.27
2022-11-09T14:08:48.899Z,11.83
2022-11-09T14:11:34.324Z,13.50
2022-11-09T14:14:19.564Z,10.33
2022-11-09T14:17:21.394Z,13.93
2022-11-09T14:20:13.066Z,16.97
2022-11-09T14:22:58.651Z,15.47
2022-11-09T14:25:44.446Z,15.27
2022-11-09T14:28:31.224Z,10.00
2022-11-09T14:31:27.357Z,9.93
2022-11-09T14:34:14.600Z,15.87
2022-11-09T14:37:04.697Z,13.33
2022-11-09T14:39:52.709Z,12.13
2022-11-09T14:42:42.033Z,14.73
2022-11-09T14:45:30.547Z,13.07
2022-11-09T14:48:18.203Z,9.27
2022-11-09T14:51:05.156Z,16.53
2022-11-09T14:53:51.060Z,14.90
2022-11-09T14:56:38.094Z,15.70
2022-11-09T14:59:31.720Z,9.80
2022-11-09T15:02:21.815Z,15.30
2022-11-09T15:05:07.663Z,16.23
2022-11-09T15:07:53.251Z,15.83
2022-11-09T15:10:38.783Z,15.00
2022-11-09T15:13:32.489Z,13.53
2022-11-09T15:16:22.185Z,15.53
2022-11-09T15:19:20.144Z,12.57
2022-11-09T15:22:05.736Z,14.80
2022-11-09T15:24:51.392Z,15.77
2022-11-09T15:27:36.678Z,14.80
2022-11-09T15:30:28.068Z,15.53
2022-11-09T15:33:19.744Z,14.43
2022-11-09T15:36:07.114Z,15.83
2022-11-09T15:38:57.813Z,15.30
2022-11-09T15:41:42.948Z,16.80
2022-11-09T15:44:28.627Z,15.67
2022-11-09T15:47:25.252Z,14.70
2022-11-09T15:50:16.638Z,16.43
2022-11-09T15:53:01.924Z,15.43
2022-11-09T15:55:47.512Z,16.73
2022-11-09T15:58:32.720Z,16.23
2022-11-09T16:01:18.463Z,17.60
2022-11-09T16:04:04.061Z,16.47
2022-11-09T16:06:49.493Z,17.73
2022-11-09T16:09:34.891Z,15.13
2022-11-09T16:12:20.559Z,18.30
2022-11-09T16:15:06.064Z,17.83
2022-11-09T16:17:51.791Z,18.77
2022-11-09T16:20:37.573Z,18.60
2022-11-09T16:23:22.823Z,18.27
2022-11-09T16:26:09.192Z,18.03
2022-11-09T16:28:54.763Z,16.57
2022-11-09T16:31:51.337Z,18.20
2022-11-09T16:34:38.065Z,17.77
2022-11-09T16:37:23.655Z,15.93
2022-11-09T16:40:11.104Z,17.57
2022-11-09T16:42:56.560Z,18.03
2022-11-09T16:45:45.613Z,16.70
2022-11-09T16:48:32.924Z,17.47
2022-11-09T16:51:18.600Z,13.00
2022-11-09T16:54:04.040Z,17.53
2022-11-09T16:56:49.606Z,18.10
2022-11-09T16:59:35.252Z,15.93
2022-11-09T17:02:20.889Z,18.27
2022-11-09T17:05:06.707Z,19.73
2022-11-09T17:07:52.147Z,19.30
2022-11-09T17:10:41.392Z,19.27
2022-11-09T17:13:26.810Z,19.20
2022-11-09T17:16:13.166Z,16.43
2022-11-09T17:18:58.456Z,15.93
2022-11-09T17:21:44.114Z,11.00
2022-11-09T17:24:29.515Z,17.17
2022-11-09T17:27:16.206Z,16.07
2022-11-09T17:30:01.476Z,18.10
2022-11-09T17:32:48.731Z,15.90
2022-11-09T17:35:36.854Z,16.47
2022-11-09T17:38:22.626Z,17.93
2022-11-09T17:41:10.219Z,16.73
2022-11-09T17:43:55.557Z,15.57
2022-11-09T17:46:40.955Z,14.43
2022-11-09T17:49:26.405Z,16.13
2022-11-09T17:52:12.247Z,16.87
2022-11-09T17:54:58.927Z,16.63
2022-11-09T17:57:44.604Z,15.00
2022-11-09T18:00:30.090Z,17.17
2022-11-09T18:03:16.021Z,19.50
2022-11-09T18:06:01.381Z,19.87
2022-11-09T18:08:58.291Z,22.23
2022-11-09T18:11:52.624Z,20.90
2022-11-09T18:14:37.871Z,20.63
2022-11-09T18:17:23.477Z,23.10
2022-11-09T18:20:09.122Z,21.03
2022-11-09T18:22:54.742Z,21.47
2022-11-09T18:25:40.004Z,21.90
2022-11-09T18:28:25.488Z,21.53
2022-11-09T18:31:11.827Z,23.50
2022-11-09T18:33:57.321Z,23.50
2022-11-09T18:36:42.574Z,19.57
2022-11-09T18:39:27.858Z,21.10
2022-11-09T18:42:13.389Z,21.07
2022-11-09T18:44:58.713Z,20.30
2022-11-09T18:47:44.355Z,20.03
2022-11-09T18:50:29.743Z,20.80
2022-11-09T18:53:15.387Z,21.27
2022-11-09T18:56:06.341Z,20.30
2022-11-09T18:58:53.594Z,21.03
2022-11-09T19:01:39.955Z,20.30
2022-11-09T19:04:25.415Z,19.03
2022-11-09T19:07:10.912Z,20.37
2022-11-09T19:09:56.811Z,19.97
2022-11-09T19:12:42.496Z,20.23
2022-11-09T19:15:28.428Z,20.07
2022-11-09T19:18:13.835Z,19.90
2022-11-09T19:20:59.381Z,19.43
2022-11-09T19:23:44.622Z,20.90
2022-11-09T19:26:30.648Z,19.57
2022-11-09T19:29:16.392Z,19.67
2022-11-09T19:32:02.050Z,20.03
2022-11-09T19:34:47.546Z,20.50
2022-11-09T19:37:33.145Z,20.40
2022-11-09T19:40:18.943Z,21.20
2022-11-09T19:43:04.326Z,21.03
2022-11-09T19:45:50.103Z,20.93
2022-11-09T19:48:36.774Z,19.53
2022-11-09T19:51:22.489Z,20.43
2022-11-09T19:54:08.200Z,19.80
2022-11-09T19:56:54.003Z,19.17
2022-11-09T19:59:39.375Z,19.07
2022-11-09T20:02:24.806Z,20.83
2022-11-09T20:05:10.285Z,21.07
2022-11-09T20:07:56.079Z,20.00
2022-11-09T20:10:41.305Z,21.13
2022-11-09T20:13:26.664Z,21.97
2022-11-09T20:16:12.266Z,21.30
2022-11-09T20:18:57.789Z,21.67
2022-11-09T20:21:44.587Z,20.90
2022-11-09T20:24:30.049Z,19.57
2022-11-09T20:27:15.604Z,19.70
2022-11-09T20:30:01.173Z,20.50
2022-11-09T20:32:46.498Z,21.03
2022-11-09T20:35:32.135Z,20.50
2022-11-09T20:38:17.363Z,21.20
2022-11-09T20:41:04.226Z,18.60
2022-11-09T20:43:49.859Z,21.77
2022-11-09T20:46:36.740Z,18.93
2022-11-09T20:49:23.091Z,20.33
2022-11-09T20:52:08.355Z,19.30
2022-11-09T20:54:54.013Z,19.03
2022-11-09T20:57:39.483Z,19.53
2022-11-09T21:00:24.881Z,19.30
2022-11-09T21:03:10.205Z,18.60
2022-11-09T21:06:02.374Z,19.17
2022-11-09T21:08:50.241Z,19.77
2022-11-09T21:11:35.495Z,19.83
2022-11-09T21:14:21.172Z,20.43
2022-11-09T21:17:06.722Z,19.00
2022-11-09T21:19:52.204Z,18.07
2022-11-09T21:23:03.526Z,20.07
2022-11-09T21:26:07.157Z,18.47
2022-11-09T21:29:11.331Z,18.63
2022-11-09T21:31:56.776Z,19.33
2022-11-09T21:34:42.507Z,19.47
2022-11-09T21:37:28.088Z,19.20
2022-11-09T21:40:13.227Z,18.00
2022-11-09T21:42:58.744Z,19.20
2022-11-09T21:45:48.908Z,18.27
2022-11-09T21:48:34.376Z,19.27
2022-11-09T21:51:19.868Z,17.93
2022-11-09T21:54:05.997Z,17.70
2022-11-09T21:56:51.972Z,17.60
2022-11-09T21:59:37.749Z,19.53
2022-11-09T22:02:23.189Z,19.70
2022-11-09T22:05:08.864Z,21.20
2022-11-09T22:07:54.408Z,19.80
2022-11-09T22:10:39.836Z,19.80
2022-11-09T22:13:44.117Z,20.43
2022-11-09T22:16:33.646Z,19.70
2022-11-09T22:19:37.381Z,18.37
2022-11-09T22:22:22.961Z,20.17
2022-11-09T22:25:08.924Z,19.43
2022-11-09T22:27:55.708Z,18.70
2022-11-09T22:30:41.085Z,19.00
2022-11-09T22:33:27.654Z,19.50
2022-11-09T22:36:14.196Z,20.87
2022-11-09T22:38:59.809Z,19.93
2022-11-09T22:41:45.240Z,20.00
2022-11-09T22:44:30.510Z,19.60
2022-11-09T22:47:15.809Z,21.03
2022-11-09T22:50:01.105Z,18.17
2022-11-09T22:52:47.536Z,18.43
2022-11-09T22:55:34.183Z,19.40
2022-11-09T22:58:19.890Z,18.13
2022-11-09T23:01:07.345Z,18.27
2022-11-09T23:03:52.541Z,18.70
2022-11-09T23:06:38.242Z,19.10
2022-11-09T23:09:23.768Z,19.20
2022-11-09T23:12:09.363Z,18.13
2022-11-09T23:15:09.396Z,18.30
2022-11-09T23:18:14.117Z,18.37
2022-11-09T23:21:00.601Z,18.70
2022-11-09T23:23:46.740Z,18.20
2022-11-09T23:26:33.036Z,18.50
2022-11-09T23:29:18.443Z,17.50
2022-11-09T23:32:03.937Z,17.50
2022-11-09T23:34:49.531Z,18.77
2022-11-09T23:37:34.937Z,17.93
2022-11-09T23:40:20.351Z,18.63
2022-11-09T23:43:07.908Z,18.33
2022-11-09T23:45:53.218Z,18.00
2022-11-09T23:48:39.432Z,19.30
2022-11-09T23:51:25.185Z,17.90
2022-11-09T23:54:10.569Z,18.20
2022-11-09T23:56:56.200Z,17.80
2022-11-09T23:59:41.517Z,17.83
